sensor_id;sensor_type;location;lat;lon;timestamp;pressure;altitude;pressure_sealevel;temperature;humidity
14269;BME280;7218;51.480;7.006;2023-04-26T00:01:16;100822.72;;;4.32;93.29
14269;BME280;7218;51.480;7.006;2023-04-26T00:03:42;100826.03;;;4.25;95.14
14269;BME280;7218;51.480;7.006;2023-04-26T00:06:09;100827.56;;;4.11;96.56
14269;BME280;7218;51.480;7.006;2023-04-26T00:08:38;100835.22;;;4.07;96.08
14269;BME280;7218;51.480;7.006;2023-04-26T00:11:04;100836.88;;;4.02;96.59
14269;BME280;7218;51.480;7.006;2023-04-26T00:13:32;100833.50;;;4.07;97.32
14269;BME280;7218;51.480;7.006;2023-04-26T00:15:59;100834.13;;;3.93;97.12
14269;BME280;7218;51.480;7.006;2023-04-26T00:18:25;100841.00;;;3.94;97.10
14269;BME280;7218;51.480;7.006;2023-04-26T00:20:52;100825.53;;;3.92;97.50
14269;BME280;7218;51.480;7.006;2023-04-26T00:23:19;100821.16;;;3.89;97.63
14269;BME280;7218;51.480;7.006;2023-04-26T00:25:45;100819.44;;;3.87;97.45
14269;BME280;7218;51.480;7.006;2023-04-26T00:28:11;100821.94;;;3.82;97.81
14269;BME280;7218;51.480;7.006;2023-04-26T00:30:39;100823.63;;;3.82;98.51
14269;BME280;7218;51.480;7.006;2023-04-26T00:33:11;100819.22;;;3.75;98.52
14269;BME280;7218;51.480;7.006;2023-04-26T00:35:38;100813.94;;;3.69;99.19
14269;BME280;7218;51.480;7.006;2023-04-26T00:38:04;100812.97;;;3.61;98.81
14269;BME280;7218;51.480;7.006;2023-04-26T00:40:31;100812.16;;;3.65;99.19
14269;BME280;7218;51.480;7.006;2023-04-26T00:42:59;100813.00;;;3.62;99.39
14269;BME280;7218;51.480;7.006;2023-04-26T00:45:26;100810.22;;;3.52;100.00
14269;BME280;7218;51.480;7.006;2023-04-26T00:47:54;100813.03;;;3.65;99.79
14269;BME280;7218;51.480;7.006;2023-04-26T00:50:20;100807.59;;;3.49;100.00
14269;BME280;7218;51.480;7.006;2023-04-26T00:52:48;100803.41;;;3.54;99.48
14269;BME280;7218;51.480;7.006;2023-04-26T00:55:15;100805.81;;;3.46;100.00
14269;BME280;7218;51.480;7.006;2023-04-26T00:57:43;100799.00;;;3.50;100.00
14269;BME280;7218;51.480;7.006;2023-04-26T01:00:10;100804.00;;;3.40;100.00
14269;BME280;7218;51.480;7.006;2023-04-26T01:02:37;100803.97;;;3.37;100.00
14269;BME280;7218;51.480;7.006;2023-04-26T01:05:05;100803.13;;;3.38;100.00
14269;BME280;7218;51.480;7.006;2023-04-26T01:07:32;100801.97;;;3.23;100.00
14269;BME280;7218;51.480;7.006;2023-04-26T01:09:58;100802.97;;;3.31;100.00
14269;BME280;7218;51.480;7.006;2023-04-26T01:12:25;100804.63;;;3.27;100.00
14269;BME280;7218;51.480;7.006;2023-04-26T01:14:52;100807.22;;;3.29;100.00
14269;BME280;7218;51.480;7.006;2023-04-26T01:17:19;100820.09;;;3.27;100.00
14269;BME280;7218;51.480;7.006;2023-04-26T01:19:46;100817.56;;;3.30;100.00
14269;BME280;7218;51.480;7.006;2023-04-26T01:22:14;100813.59;;;3.47;100.00
14269;BME280;7218;51.480;7.006;2023-04-26T01:24:44;100817.03;;;3.50;100.00
14269;BME280;7218;51.480;7.006;2023-04-26T01:27:11;100817.00;;;3.46;100.00
14269;BME280;7218;51.480;7.006;2023-04-26T01:29:38;100813.47;;;3.41;100.00
14269;BME280;7218;51.480;7.006;2023-04-26T01:32:05;100816.09;;;3.44;100.00
14269;BME280;7218;51.480;7.006;2023-04-26T01:34:31;100814.13;;;3.30;100.00
14269;BME280;7218;51.480;7.006;2023-04-26T01:36:58;100816.69;;;3.28;100.00
14269;BME280;7218;51.480;7.006;2023-04-26T01:39:25;100813.06;;;3.20;100.00
14269;BME280;7218;51.480;7.006;2023-04-26T01:41:55;100824.53;;;3.36;100.00
14269;BME280;7218;51.480;7.006;2023-04-26T01:44:22;100809.78;;;3.27;100.00
14269;BME280;7218;51.480;7.006;2023-04-26T01:46:49;100813.34;;;3.35;100.00
14269;BME280;7218;51.480;7.006;2023-04-26T01:49:15;100814.31;;;3.40;100.00
14269;BME280;7218;51.480;7.006;2023-04-26T01:51:42;100819.34;;;3.34;100.00
14269;BME280;7218;51.480;7.006;2023-04-26T01:54:08;100817.72;;;3.39;100.00
14269;BME280;7218;51.480;7.006;2023-04-26T01:56:35;100818.59;;;3.38;100.00
14269;BME280;7218;51.480;7.006;2023-04-26T01:59:02;100815.41;;;3.55;100.00
14269;BME280;7218;51.480;7.006;2023-04-26T02:01:29;100819.53;;;3.43;100.00
14269;BME280;7218;51.480;7.006;2023-04-26T02:03:56;100826.44;;;3.46;100.00
14269;BME280;7218;51.480;7.006;2023-04-26T02:06:23;100820.38;;;3.42;100.00
14269;BME280;7218;51.480;7.006;2023-04-26T02:08:51;100821.31;;;3.47;100.00
14269;BME280;7218;51.480;7.006;2023-04-26T02:11:17;100820.56;;;3.55;100.00
14269;BME280;7218;51.480;7.006;2023-04-26T02:13:44;100823.94;;;3.51;100.00
14269;BME280;7218;51.480;7.006;2023-04-26T02:16:12;100822.28;;;3.53;100.00
14269;BME280;7218;51.480;7.006;2023-04-26T02:18:40;100827.34;;;3.48;100.00
14269;BME280;7218;51.480;7.006;2023-04-26T02:21:06;100823.91;;;3.47;100.00
14269;BME280;7218;51.480;7.006;2023-04-26T02:23:33;100816.09;;;3.43;100.00
14269;BME280;7218;51.480;7.006;2023-04-26T02:26:00;100827.16;;;3.37;100.00
14269;BME280;7218;51.480;7.006;2023-04-26T02:28:27;100822.63;;;3.26;100.00
14269;BME280;7218;51.480;7.006;2023-04-26T02:30:53;100824.50;;;3.34;100.00
14269;BME280;7218;51.480;7.006;2023-04-26T02:33:22;100822.13;;;3.43;100.00
14269;BME280;7218;51.480;7.006;2023-04-26T02:35:48;100822.63;;;3.26;100.00
14269;BME280;7218;51.480;7.006;2023-04-26T02:38:16;100821.06;;;3.34;100.00
14269;BME280;7218;51.480;7.006;2023-04-26T02:40:42;100818.47;;;3.32;100.00
14269;BME280;7218;51.480;7.006;2023-04-26T02:43:10;100819.44;;;3.37;100.00
14269;BME280;7218;51.480;7.006;2023-04-26T02:45:40;100816.19;;;3.49;100.00
14269;BME280;7218;51.480;7.006;2023-04-26T02:48:06;100812.25;;;3.21;100.00
14269;BME280;7218;51.480;7.006;2023-04-26T02:50:34;100820.31;;;3.39;100.00
14269;BME280;7218;51.480;7.006;2023-04-26T02:53:01;100819.81;;;3.12;100.00
14269;BME280;7218;51.480;7.006;2023-04-26T02:55:27;100820.63;;;3.11;100.00
14269;BME280;7218;51.480;7.006;2023-04-26T02:57:54;100813.69;;;3.07;100.00
14269;BME280;7218;51.480;7.006;2023-04-26T03:00:20;100819.63;;;3.03;100.00
14269;BME280;7218;51.480;7.006;2023-04-26T03:02:48;100811.03;;;3.04;100.00
14269;BME280;7218;51.480;7.006;2023-04-26T03:05:14;100805.78;;;2.98;100.00
14269;BME280;7218;51.480;7.006;2023-04-26T03:07:43;100810.28;;;3.10;100.00
14269;BME280;7218;51.480;7.006;2023-04-26T03:10:09;100806.97;;;3.15;100.00
14269;BME280;7218;51.480;7.006;2023-04-26T03:12:37;100803.44;;;3.10;100.00
14269;BME280;7218;51.480;7.006;2023-04-26T03:15:04;100811.13;;;3.07;100.00
14269;BME280;7218;51.480;7.006;2023-04-26T03:17:30;100808.38;;;2.99;100.00
14269;BME280;7218;51.480;7.006;2023-04-26T03:19:56;100803.03;;;2.89;100.00
14269;BME280;7218;51.480;7.006;2023-04-26T03:22:23;100808.19;;;2.90;100.00
14269;BME280;7218;51.480;7.006;2023-04-26T03:24:51;100804.19;;;3.04;100.00
14269;BME280;7218;51.480;7.006;2023-04-26T03:27:17;100804.63;;;2.82;100.00
14269;BME280;7218;51.480;7.006;2023-04-26T03:29:44;100806.59;;;2.95;100.00
14269;BME280;7218;51.480;7.006;2023-04-26T03:32:11;100803.97;;;2.94;100.00
14269;BME280;7218;51.480;7.006;2023-04-26T03:34:37;100795.41;;;2.95;100.00
14269;BME280;7218;51.480;7.006;2023-04-26T03:37:04;100798.78;;;2.91;100.00
14269;BME280;7218;51.480;7.006;2023-04-26T03:39:30;100803.03;;;2.89;100.00
14269;BME280;7218;51.480;7.006;2023-04-26T03:41:58;100797.13;;;2.94;100.00
14269;BME280;7218;51.480;7.006;2023-04-26T03:44:25;100797.78;;;2.84;100.00
14269;BME280;7218;51.480;7.006;2023-04-26T03:46:51;100794.38;;;2.85;100.00
14269;BME280;7218;51.480;7.006;2023-04-26T03:49:18;100795.09;;;2.80;100.00
14269;BME280;7218;51.480;7.006;2023-04-26T03:51:45;100795.97;;;2.80;100.00
14269;BME280;7218;51.480;7.006;2023-04-26T03:54:11;100796.72;;;2.75;100.00
14269;BME280;7218;51.480;7.006;2023-04-26T03:56:38;100788.16;;;2.76;100.00
14269;BME280;7218;51.480;7.006;2023-04-26T03:59:07;100791.56;;;2.75;100.00
14269;BME280;7218;51.480;7.006;2023-04-26T04:01:34;100804.22;;;2.64;100.00
14269;BME280;7218;51.480;7.006;2023-04-26T04:04:00;100794.78;;;2.63;100.00
14269;BME280;7218;51.480;7.006;2023-04-26T04:06:27;100793.22;;;2.71;100.00
14269;BME280;7218;51.480;7.006;2023-04-26T04:08:53;100795.84;;;2.74;100.00
14269;BME280;7218;51.480;7.006;2023-04-26T04:11:20;100792.66;;;2.86;100.00
14269;BME280;7218;51.480;7.006;2023-04-26T04:13:47;100794.41;;;2.87;100.00
14269;BME280;7218;51.480;7.006;2023-04-26T04:16:15;100799.50;;;2.84;100.00
14269;BME280;7218;51.480;7.006;2023-04-26T04:18:42;100798.16;;;2.60;100.00
14269;BME280;7218;51.480;7.006;2023-04-26T04:21:08;100799.09;;;2.66;100.00
14269;BME280;7218;51.480;7.006;2023-04-26T04:23:35;100807.66;;;2.65;100.00
14269;BME280;7218;51.480;7.006;2023-04-26T04:26:01;100794.78;;;2.65;100.00
14269;BME280;7218;51.480;7.006;2023-04-26T04:28:28;100801.94;;;2.78;100.00
14269;BME280;7218;51.480;7.006;2023-04-26T04:30:54;100796.56;;;2.67;100.00
14269;BME280;7218;51.480;7.006;2023-04-26T04:33:22;100797.66;;;2.78;100.00
14269;BME280;7218;51.480;7.006;2023-04-26T04:35:49;100802.66;;;2.71;100.00
14269;BME280;7218;51.480;7.006;2023-04-26T04:38:16;100808.75;;;2.76;100.00
14269;BME280;7218;51.480;7.006;2023-04-26T04:40:43;100813.44;;;2.93;100.00
14269;BME280;7218;51.480;7.006;2023-04-26T04:43:09;100815.19;;;2.96;100.00
14269;BME280;7218;51.480;7.006;2023-04-26T04:45:36;100814.28;;;2.94;100.00
14269;BME280;7218;51.480;7.006;2023-04-26T04:48:03;100810.88;;;2.95;100.00
14269;BME280;7218;51.480;7.006;2023-04-26T04:50:31;100812.78;;;3.03;100.00
14269;BME280;7218;51.480;7.006;2023-04-26T04:52:57;100816.97;;;2.98;100.00
14269;BME280;7218;51.480;7.006;2023-04-26T04:55:24;100814.28;;;2.94;100.00
14269;BME280;7218;51.480;7.006;2023-04-26T04:57:50;100819.63;;;3.03;100.00
14269;BME280;7218;51.480;7.006;2023-04-26T05:00:17;100822.44;;;3.15;100.00
14269;BME280;7218;51.480;7.006;2023-04-26T05:02:44;100818.00;;;3.08;100.00
14269;BME280;7218;51.480;7.006;2023-04-26T05:05:10;100818.66;;;2.98;100.00
14269;BME280;7218;51.480;7.006;2023-04-26T05:07:38;100821.75;;;3.25;100.00
14269;BME280;7218;51.480;7.006;2023-04-26T05:10:05;100825.44;;;3.38;100.00
14269;BME280;7218;51.480;7.006;2023-04-26T05:12:32;100829.81;;;3.42;100.00
14269;BME280;7218;51.480;7.006;2023-04-26T05:14:59;100826.63;;;3.57;100.00
14269;BME280;7218;51.480;7.006;2023-04-26T05:17:26;100833.53;;;3.58;100.00
14269;BME280;7218;51.480;7.006;2023-04-26T05:19:52;100837.66;;;3.50;100.00
14269;BME280;7218;51.480;7.006;2023-04-26T05:22:19;100838.59;;;3.52;100.00
14269;BME280;7218;51.480;7.006;2023-04-26T05:24:48;100837.72;;;3.51;100.00
14269;BME280;7218;51.480;7.006;2023-04-26T05:27:15;100843.41;;;3.35;100.00
14269;BME280;7218;51.480;7.006;2023-04-26T05:29:41;100845.22;;;3.39;100.00
14269;BME280;7218;51.480;7.006;2023-04-26T05:32:08;100849.41;;;3.32;100.00
14269;BME280;7218;51.480;7.006;2023-04-26T05:34:34;100843.28;;;3.27;100.00
14269;BME280;7218;51.480;7.006;2023-04-26T05:37:01;100849.53;;;3.38;100.00
14269;BME280;7218;51.480;7.006;2023-04-26T05:39:28;100850.72;;;3.59;100.00
14269;BME280;7218;51.480;7.006;2023-04-26T05:41:56;100853.22;;;3.53;100.00
14269;BME280;7218;51.480;7.006;2023-04-26T05:44:22;100853.34;;;3.60;100.00
14269;BME280;7218;51.480;7.006;2023-04-26T05:46:49;100860.91;;;3.51;100.00
14269;BME280;7218;51.480;7.006;2023-04-26T05:49:15;100860.13;;;3.54;100.00
14269;BME280;7218;51.480;7.006;2023-04-26T05:51:42;100859.69;;;3.79;100.00
14269;BME280;7218;51.480;7.006;2023-04-26T05:54:08;100846.28;;;4.00;100.00
14269;BME280;7218;51.480;7.006;2023-04-26T05:56:35;100856.41;;;3.87;100.00
14269;BME280;7218;51.480;7.006;2023-04-26T05:59:02;100869.59;;;4.06;100.00
14269;BME280;7218;51.480;7.006;2023-04-26T06:01:29;100863.47;;;3.99;99.50
14269;BME280;7218;51.480;7.006;2023-04-26T06:03:56;100867.91;;;4.06;99.81
14269;BME280;7218;51.480;7.006;2023-04-26T06:06:22;100865.03;;;3.88;100.00
14269;BME280;7218;51.480;7.006;2023-04-26T06:08:49;100865.28;;;4.05;99.95
14269;BME280;7218;51.480;7.006;2023-04-26T06:11:15;100868.34;;;4.35;98.47
14269;BME280;7218;51.480;7.006;2023-04-26T06:13:42;100866.66;;;4.37;99.02
14269;BME280;7218;51.480;7.006;2023-04-26T06:16:10;100869.34;;;4.45;99.05
14269;BME280;7218;51.480;7.006;2023-04-26T06:18:36;100866.47;;;4.25;100.00
14269;BME280;7218;51.480;7.006;2023-04-26T06:21:03;100871.56;;;4.20;100.00
14269;BME280;7218;51.480;7.006;2023-04-26T06:23:29;100878.09;;;4.54;99.87
14269;BME280;7218;51.480;7.006;2023-04-26T06:25:56;100878.59;;;4.88;98.81
14269;BME280;7218;51.480;7.006;2023-04-26T06:28:22;100866.75;;;5.06;96.23
14269;BME280;7218;51.480;7.006;2023-04-26T06:30:49;100876.38;;;5.18;93.79
14269;BME280;7218;51.480;7.006;2023-04-26T06:33:17;100877.31;;;5.25;93.88
14269;BME280;7218;51.480;7.006;2023-04-26T06:35:43;100879.03;;;5.23;93.13
14269;BME280;7218;51.480;7.006;2023-04-26T06:38:10;100879.56;;;4.97;94.94
14269;BME280;7218;51.480;7.006;2023-04-26T06:40:37;100891.84;;;5.15;94.38
14269;BME280;7218;51.480;7.006;2023-04-26T06:43:04;100898.81;;;4.57;96.49
14269;BME280;7218;51.480;7.006;2023-04-26T06:45:30;100893.94;;;4.78;96.66
14269;BME280;7218;51.480;7.006;2023-04-26T06:47:57;100886.72;;;5.19;93.93
14269;BME280;7218;51.480;7.006;2023-04-26T06:50:27;100879.38;;;5.54;91.95
14269;BME280;7218;51.480;7.006;2023-04-26T06:52:54;100883.44;;;5.34;93.10
14269;BME280;7218;51.480;7.006;2023-04-26T06:55:21;100878.59;;;5.64;91.87
14269;BME280;7218;51.480;7.006;2023-04-26T06:57:48;100872.59;;;5.69;89.57
14269;BME280;7218;51.480;7.006;2023-04-26T07:00:15;100875.19;;;5.67;88.60
14269;BME280;7218;51.480;7.006;2023-04-26T07:02:41;100876.91;;;5.68;87.21
14269;BME280;7218;51.480;7.006;2023-04-26T07:05:08;100869.44;;;5.94;87.38
14269;BME280;7218;51.480;7.006;2023-04-26T07:07:36;100870.03;;;5.69;89.13
14269;BME280;7218;51.480;7.006;2023-04-26T07:10:03;100870.31;;;5.94;88.45
14269;BME280;7218;51.480;7.006;2023-04-26T07:12:30;100874.69;;;6.01;84.77
14269;BME280;7218;51.480;7.006;2023-04-26T07:14:56;100879.84;;;6.03;81.89
14269;BME280;7218;51.480;7.006;2023-04-26T07:22:28;100875.88;;;6.41;80.70
14269;BME280;7218;51.480;7.006;2023-04-26T07:24:56;100877.69;;;6.59;79.98
14269;BME280;7218;51.480;7.006;2023-04-26T07:27:23;100880.41;;;6.79;79.69
14269;BME280;7218;51.480;7.006;2023-04-26T07:29:52;100883.91;;;6.88;79.82
14269;BME280;7218;51.480;7.006;2023-04-26T07:32:19;100874.09;;;6.39;80.20
14269;BME280;7218;51.480;7.006;2023-04-26T07:34:45;100881.84;;;6.31;80.03
14269;BME280;7218;51.480;7.006;2023-04-26T07:37:12;100875.16;;;6.68;78.26
14269;BME280;7218;51.480;7.006;2023-04-26T07:39:38;100871.06;;;7.07;74.85
14269;BME280;7218;51.480;7.006;2023-04-26T07:42:06;100875.50;;;7.40;71.76
14269;BME280;7218;51.480;7.006;2023-04-26T07:44:32;100870.19;;;7.06;72.44
14269;BME280;7218;51.480;7.006;2023-04-26T07:46:59;100871.97;;;7.24;71.61
14269;BME280;7218;51.480;7.006;2023-04-26T07:49:25;100872.94;;;7.59;69.64
14269;BME280;7218;51.480;7.006;2023-04-26T07:51:52;100872.13;;;7.86;68.76
14269;BME280;7218;51.480;7.006;2023-04-26T07:54:20;100874.72;;;8.00;66.72
14269;BME280;7218;51.480;7.006;2023-04-26T07:56:47;100877.31;;;7.80;69.98
14269;BME280;7218;51.480;7.006;2023-04-26T07:59:14;100866.91;;;7.92;69.28
14269;BME280;7218;51.480;7.006;2023-04-26T08:01:41;100874.75;;;7.97;70.11
14269;BME280;7218;51.480;7.006;2023-04-26T08:04:08;100864.31;;;8.12;66.87
14269;BME280;7218;51.480;7.006;2023-04-26T08:06:34;100867.66;;;7.27;68.85
14269;BME280;7218;51.480;7.006;2023-04-26T08:09:02;100874.47;;;6.97;73.58
14269;BME280;7218;51.480;7.006;2023-04-26T08:11:29;100870.16;;;7.08;72.08
14269;BME280;7218;51.480;7.006;2023-04-26T08:13:56;100864.22;;;7.30;71.73
14269;BME280;7218;51.480;7.006;2023-04-26T08:16:24;100863.44;;;7.67;68.49
14269;BME280;7218;51.480;7.006;2023-04-26T08:18:51;100874.63;;;7.48;69.60
14269;BME280;7218;51.480;7.006;2023-04-26T08:21:17;100872.94;;;7.59;68.15
14269;BME280;7218;51.480;7.006;2023-04-26T08:23:43;100866.88;;;7.56;69.23
14269;BME280;7218;51.480;7.006;2023-04-26T08:26:10;100863.41;;;7.51;69.99
14269;BME280;7218;51.480;7.006;2023-04-26T08:28:37;100864.34;;;8.06;67.16
14269;BME280;7218;51.480;7.006;2023-04-26T08:31:03;100864.38;;;8.35;66.00
14269;BME280;7218;51.480;7.006;2023-04-26T08:33:31;100862.59;;;7.74;67.25
14269;BME280;7218;51.480;7.006;2023-04-26T08:35:58;100864.19;;;7.16;71.93
14269;BME280;7218;51.480;7.006;2023-04-26T08:38:26;100870.28;;;7.38;68.35
14269;BME280;7218;51.480;7.006;2023-04-26T08:40:54;100872.97;;;7.93;65.24
14269;BME280;7218;51.480;7.006;2023-04-26T08:43:27;100881.66;;;8.04;62.52
14269;BME280;7218;51.480;7.006;2023-04-26T08:45:53;100873.69;;;7.23;67.21
14269;BME280;7218;51.480;7.006;2023-04-26T08:48:20;100880.44;;;6.88;68.77
14269;BME280;7218;51.480;7.006;2023-04-26T08:50:49;100874.56;;;7.24;68.15
14269;BME280;7218;51.480;7.006;2023-04-26T08:53:16;100878.72;;;6.84;68.30
14269;BME280;7218;51.480;7.006;2023-04-26T08:55:46;100876.44;;;7.72;64.64
14269;BME280;7218;51.480;7.006;2023-04-26T08:58:13;100872.91;;;7.53;63.37
14269;BME280;7218;51.480;7.006;2023-04-26T09:00:42;100876.47;;;8.25;61.54
14269;BME280;7218;51.480;7.006;2023-04-26T09:03:08;100872.75;;;7.05;65.26
14269;BME280;7218;51.480;7.006;2023-04-26T09:05:35;100872.97;;;7.74;62.79
14269;BME280;7218;51.480;7.006;2023-04-26T09:08:05;100875.59;;;8.29;59.10
14269;BME280;7218;51.480;7.006;2023-04-26T09:10:32;100876.47;;;8.25;57.79
14269;BME280;7218;51.480;7.006;2023-04-26T09:12:59;100872.13;;;8.53;58.10
14269;BME280;7218;51.480;7.006;2023-04-26T09:15:26;100881.69;;;8.43;57.36
14269;BME280;7218;51.480;7.006;2023-04-26T09:17:52;100870.38;;;8.72;57.73
14269;BME280;7218;51.480;7.006;2023-04-26T09:20:21;100870.16;;;9.31;49.01
14269;BME280;7218;51.480;7.006;2023-04-26T09:22:49;100866.56;;;9.51;48.42
14269;BME280;7218;51.480;7.006;2023-04-26T09:25:18;100868.41;;;9.33;49.46
14269;BME280;7218;51.480;7.006;2023-04-26T09:27:52;100868.66;;;8.54;53.24
14269;BME280;7218;51.480;7.006;2023-04-26T09:30:18;100870.34;;;8.81;54.12
14269;BME280;7218;51.480;7.006;2023-04-26T09:32:48;100875.56;;;8.81;54.81
14269;BME280;7218;51.480;7.006;2023-04-26T09:35:30;100873.81;;;8.77;54.27
14269;BME280;7218;51.480;7.006;2023-04-26T09:37:59;100872.97;;;8.75;55.01
14269;BME280;7218;51.480;7.006;2023-04-26T09:40:30;100875.56;;;8.67;53.82
14269;BME280;7218;51.480;7.006;2023-04-26T09:42:57;100873.91;;;8.31;54.93
14269;BME280;7218;51.480;7.006;2023-04-26T09:45:24;100873.84;;;7.83;56.42
14269;BME280;7218;51.480;7.006;2023-04-26T09:47:51;100866.91;;;8.62;55.21
14269;BME280;7218;51.480;7.006;2023-04-26T09:50:28;100871.22;;;8.80;56.09
14269;BME280;7218;51.480;7.006;2023-04-26T09:52:55;100861.25;;;9.71;51.52
14269;BME280;7218;51.480;7.006;2023-04-26T09:55:27;100849.78;;;10.87;47.13
14269;BME280;7218;51.480;7.006;2023-04-26T09:57:54;100840.19;;;11.56;44.80
14269;BME280;7218;51.480;7.006;2023-04-26T10:00:23;100839.38;;;11.52;44.25
14269;BME280;7218;51.480;7.006;2023-04-26T10:02:51;100843.28;;;11.22;46.83
14269;BME280;7218;51.480;7.006;2023-04-26T10:05:18;100844.28;;;11.11;45.98
14269;BME280;7218;51.480;7.006;2023-04-26T10:07:46;100848.03;;;10.90;45.64
14269;BME280;7218;51.480;7.006;2023-04-26T10:10:13;100848.34;;;10.61;44.93
14269;BME280;7218;51.480;7.006;2023-04-26T10:12:41;100837.38;;;10.27;45.83
14269;BME280;7218;51.480;7.006;2023-04-26T10:15:12;100848.50;;;9.24;48.87
14269;BME280;7218;51.480;7.006;2023-04-26T10:17:39;100853.97;;;8.35;51.60
14269;BME280;7218;51.480;7.006;2023-04-26T10:20:10;100863.34;;;9.05;51.36
14269;BME280;7218;51.480;7.006;2023-04-26T10:22:43;100856.97;;;9.63;48.05
14269;BME280;7218;51.480;7.006;2023-04-26T10:25:11;100855.31;;;9.49;47.53
14269;BME280;7218;51.480;7.006;2023-04-26T10:27:51;100854.97;;;9.98;47.19
14269;BME280;7218;51.480;7.006;2023-04-26T10:30:19;100854.84;;;10.16;44.71
14269;BME280;7218;51.480;7.006;2023-04-26T10:33:20;100830.72;;;11.49;42.66
14269;BME280;7218;51.480;7.006;2023-04-26T10:36:14;100833.72;;;11.84;41.80
14269;BME280;7218;51.480;7.006;2023-04-26T10:39:19;100825.03;;;13.23;44.54
14269;BME280;7218;51.480;7.006;2023-04-26T10:41:46;100833.63;;;13.68;41.19
14269;BME280;7218;51.480;7.006;2023-04-26T10:44:47;100835.47;;;12.80;40.24
14269;BME280;7218;51.480;7.006;2023-04-26T10:47:22;100828.59;;;12.29;39.77
14269;BME280;7218;51.480;7.006;2023-04-26T10:49:49;100839.03;;;11.15;42.75
14269;BME280;7218;51.480;7.006;2023-04-26T10:52:17;100831.84;;;11.91;40.14
14269;BME280;7218;51.480;7.006;2023-04-26T10:54:52;100831.66;;;12.97;39.33
14269;BME280;7218;51.480;7.006;2023-04-26T10:57:21;100826.94;;;13.55;37.10
14269;BME280;7218;51.480;7.006;2023-04-26T11:00:17;100814.53;;;14.33;37.12
14269;BME280;7218;51.480;7.006;2023-04-26T11:03:04;100818.94;;;14.31;34.25
14269;BME280;7218;51.480;7.006;2023-04-26T11:05:50;100819.94;;;12.71;35.17
14269;BME280;7218;51.480;7.006;2023-04-26T11:08:18;100819.06;;;12.72;37.65
14269;BME280;7218;51.480;7.006;2023-04-26T11:10:50;100816.66;;;13.46;36.88
14269;BME280;7218;51.480;7.006;2023-04-26T11:13:18;100811.41;;;14.18;35.74
14269;BME280;7218;51.480;7.006;2023-04-26T11:15:46;100810.50;;;15.15;36.30
14269;BME280;7218;51.480;7.006;2023-04-26T11:18:18;100807.34;;;15.33;33.66
14269;BME280;7218;51.480;7.006;2023-04-26T11:20:45;100813.97;;;16.01;32.39
14269;BME280;7218;51.480;7.006;2023-04-26T11:23:12;100818.06;;;13.22;35.72
14269;BME280;7218;51.480;7.006;2023-04-26T11:25:39;100819.25;;;13.48;35.08
14269;BME280;7218;51.480;7.006;2023-04-26T11:28:06;100809.78;;;14.48;33.63
14269;BME280;7218;51.480;7.006;2023-04-26T11:30:34;100814.94;;;14.51;35.04
14269;BME280;7218;51.480;7.006;2023-04-26T11:33:03;100821.63;;;14.29;34.06
14269;BME280;7218;51.480;7.006;2023-04-26T11:35:32;100817.81;;;13.34;33.58
14269;BME280;7218;51.480;7.006;2023-04-26T11:38:00;100818.88;;;13.64;36.24
14269;BME280;7218;51.480;7.006;2023-04-26T11:40:30;100818.47;;;13.81;35.32
14269;BME280;7218;51.480;7.006;2023-04-26T11:43:00;100808.38;;;14.68;34.32
14269;BME280;7218;51.480;7.006;2023-04-26T11:45:27;100803.59;;;16.22;33.63
14269;BME280;7218;51.480;7.006;2023-04-26T11:47:54;100799.44;;;16.15;32.75
14269;BME280;7218;51.480;7.006;2023-04-26T11:50:23;100793.53;;;17.06;30.52
14269;BME280;7218;51.480;7.006;2023-04-26T11:52:52;100791.31;;;16.96;31.24
14269;BME280;7218;51.480;7.006;2023-04-26T11:55:23;100789.53;;;16.23;30.72
14269;BME280;7218;51.480;7.006;2023-04-26T11:57:50;100802.13;;;15.87;33.38
14269;BME280;7218;51.480;7.006;2023-04-26T12:00:17;100799.22;;;15.12;31.94
14269;BME280;7218;51.480;7.006;2023-04-26T12:02:44;100801.31;;;14.70;33.42
14269;BME280;7218;51.480;7.006;2023-04-26T12:05:19;100797.47;;;14.50;34.90
14269;BME280;7218;51.480;7.006;2023-04-26T12:07:50;100806.72;;;14.30;34.38
14269;BME280;7218;51.480;7.006;2023-04-26T12:10:19;100818.31;;;13.50;35.90
14269;BME280;7218;51.480;7.006;2023-04-26T12:12:46;100807.81;;;13.10;36.84
14269;BME280;7218;51.480;7.006;2023-04-26T12:15:14;100813.13;;;13.06;37.80
14269;BME280;7218;51.480;7.006;2023-04-26T12:17:51;100809.69;;;13.45;38.01
14269;BME280;7218;51.480;7.006;2023-04-26T12:20:18;100803.34;;;13.17;39.29
14269;BME280;7218;51.480;7.006;2023-04-26T12:22:57;100801.69;;;13.51;38.11
14269;BME280;7218;51.480;7.006;2023-04-26T12:25:24;100804.97;;;12.79;38.41
14269;BME280;7218;51.480;7.006;2023-04-26T12:27:50;100813.84;;;12.71;37.44
14269;BME280;7218;51.480;7.006;2023-04-26T12:30:17;100809.41;;;12.76;38.23
14269;BME280;7218;51.480;7.006;2023-04-26T12:32:43;100813.78;;;12.29;38.82
14269;BME280;7218;51.480;7.006;2023-04-26T12:35:10;100811.56;;;12.06;40.12
14269;BME280;7218;51.480;7.006;2023-04-26T12:37:36;100806.22;;;11.56;39.21
14269;BME280;7218;51.480;7.006;2023-04-26T12:40:06;100812.09;;;11.72;40.28
14269;BME280;7218;51.480;7.006;2023-04-26T12:42:33;100808.47;;;11.23;39.70
14269;BME280;7218;51.480;7.006;2023-04-26T12:45:00;100808.31;;;11.33;40.01
14269;BME280;7218;51.480;7.006;2023-04-26T12:47:26;100808.84;;;11.56;41.01
14269;BME280;7218;51.480;7.006;2023-04-26T12:49:53;100808.06;;;11.51;39.00
14269;BME280;7218;51.480;7.006;2023-04-26T12:52:19;100809.88;;;12.02;38.18
14269;BME280;7218;51.480;7.006;2023-04-26T12:54:45;100807.59;;;12.35;37.56
14269;BME280;7218;51.480;7.006;2023-04-26T12:57:14;100802.47;;;12.73;36.74
14269;BME280;7218;51.480;7.006;2023-04-26T12:59:41;100803.66;;;12.59;35.69
14269;BME280;7218;51.480;7.006;2023-04-26T13:02:07;100804.22;;;12.73;36.51
14269;BME280;7218;51.480;7.006;2023-04-26T13:04:34;100809.13;;;12.89;37.13
14269;BME280;7218;51.480;7.006;2023-04-26T13:07:01;100799.44;;;12.94;36.46
14269;BME280;7218;51.480;7.006;2023-04-26T13:09:27;100807.31;;;12.48;36.57
14269;BME280;7218;51.480;7.006;2023-04-26T13:11:54;100806.94;;;12.21;36.40
14269;BME280;7218;51.480;7.006;2023-04-26T13:14:21;100813.28;;;12.07;35.77